createdAt,value
2018-09-09T00:00:05.843Z,11.73
2018-09-09T00:02:36.339Z,12.27
2018-09-09T00:05:05.369Z,12.73
2018-09-09T00:07:34.162Z,13.00
2018-09-09T00:10:02.992Z,13.07
2018-09-09T00:12:31.763Z,13.73
2018-09-09T00:15:00.588Z,12.87
2018-09-09T00:17:29.351Z,13.40
2018-09-09T00:19:58.152Z,11.40
2018-09-09T00:22:26.943Z,12.17
2018-09-09T00:24:55.703Z,12.37
2018-09-09T00:27:24.488Z,11.90
2018-09-09T00:29:53.284Z,11.77
2018-09-09T00:32:22.131Z,11.30
2018-09-09T00:34:50.883Z,11.27
2018-09-09T00:37:19.658Z,11.87
2018-09-09T00:39:48.508Z,11.17
2018-09-09T00:42:17.335Z,11.70
2018-09-09T00:44:46.175Z,11.23
2018-09-09T00:47:14.926Z,11.40
2018-09-09T00:49:49.054Z,10.83
2018-09-09T00:52:23.164Z,11.07
2018-09-09T00:54:51.971Z,11.97
2018-09-09T00:57:20.793Z,10.83
2018-09-09T00:59:49.583Z,12.97
2018-09-09T01:02:18.385Z,11.73
2018-09-09T01:04:47.192Z,11.13
2018-09-09T01:07:16.041Z,10.77
2018-09-09T01:09:44.823Z,11.50
2018-09-09T01:12:13.784Z,11.00
2018-09-09T01:14:42.819Z,9.90
2018-09-09T01:17:11.596Z,11.27
2018-09-09T01:19:40.403Z,11.37
2018-09-09T01:22:09.183Z,10.47
2018-09-09T01:24:37.963Z,10.73
2018-09-09T01:27:06.787Z,11.77
2018-09-09T01:29:35.620Z,11.67
2018-09-09T01:32:04.426Z,11.03
2018-09-09T01:34:33.191Z,10.60
2018-09-09T01:37:01.947Z,10.10
2018-09-09T01:39:30.760Z,10.33
2018-09-09T01:41:59.528Z,9.53
2018-09-09T01:44:28.342Z,12.03
2018-09-09T01:46:57.166Z,11.33
2018-09-09T01:49:25.971Z,11.17
2018-09-09T01:51:54.784Z,11.53
2018-09-09T01:54:23.605Z,11.23
2018-09-09T01:56:52.410Z,11.83
2018-09-09T01:59:21.222Z,10.90
2018-09-09T02:01:50.008Z,12.00
2018-09-09T02:04:18.830Z,10.37
2018-09-09T02:06:47.644Z,11.73
2018-09-09T02:09:16.423Z,10.97
2018-09-09T02:11:45.289Z,10.67
2018-09-09T02:14:14.097Z,11.30
2018-09-09T02:16:42.931Z,11.53
2018-09-09T02:19:11.790Z,12.03
2018-09-09T02:21:40.629Z,12.23
2018-09-09T02:24:09.401Z,9.70
2018-09-09T02:26:38.263Z,12.00
2018-09-09T02:29:07.129Z,11.20
2018-09-09T02:31:35.898Z,11.23
2018-09-09T02:34:04.772Z,11.30
2018-09-09T02:36:33.571Z,11.57
2018-09-09T02:39:02.404Z,10.50
2018-09-09T02:41:31.192Z,11.17
2018-09-09T02:44:00.011Z,10.70
2018-09-09T02:46:28.808Z,11.43
2018-09-09T02:48:57.624Z,10.47
2018-09-09T02:51:26.620Z,11.50
2018-09-09T02:53:55.448Z,11.87
2018-09-09T02:56:24.224Z,11.50
2018-09-09T02:58:53.013Z,10.77
2018-09-09T03:01:21.805Z,11.43
2018-09-09T03:03:50.676Z,10.57
2018-09-09T03:06:19.691Z,11.93
2018-09-09T03:08:48.476Z,12.00
2018-09-09T03:11:17.261Z,11.47
2018-09-09T03:13:46.737Z,11.53
2018-09-09T03:16:15.496Z,12.03
2018-09-09T03:18:44.356Z,12.07
2018-09-09T03:21:20.250Z,10.90
2018-09-09T03:23:49.336Z,10.00
2018-09-09T03:26:18.124Z,11.73
2018-09-09T03:28:47.041Z,11.60
2018-09-09T03:31:15.962Z,11.87
2018-09-09T03:33:44.759Z,11.00
2018-09-09T03:36:13.598Z,12.33
2018-09-09T03:38:42.739Z,11.67
2018-09-09T03:41:11.527Z,12.13
2018-09-09T03:43:40.299Z,11.40
2018-09-09T03:46:09.186Z,11.73
2018-09-09T03:48:37.982Z,11.77
2018-09-09T03:51:06.804Z,11.73
2018-09-09T03:53:35.603Z,12.00
2018-09-09T03:56:04.387Z,12.53
2018-09-09T03:58:33.219Z,11.53
2018-09-09T04:01:02.119Z,11.97
2018-09-09T04:03:30.912Z,13.10
2018-09-09T04:05:59.750Z,12.73
2018-09-09T04:08:28.560Z,11.67
2018-09-09T04:10:57.390Z,12.77
2018-09-09T04:13:26.218Z,12.50
2018-09-09T04:15:55.019Z,12.70
2018-09-09T04:18:23.761Z,12.13
2018-09-09T04:20:52.574Z,12.37
2018-09-09T04:23:21.407Z,11.27
2018-09-09T04:25:50.197Z,11.97
2018-09-09T04:28:18.978Z,12.33
2018-09-09T04:30:47.802Z,11.00
2018-09-09T04:33:16.763Z,12.03
2018-09-09T04:35:45.519Z,12.50
2018-09-09T04:38:14.296Z,12.70
2018-09-09T04:40:43.058Z,11.60
2018-09-09T04:43:11.826Z,12.17
2018-09-09T04:45:40.632Z,12.83
2018-09-09T04:48:09.424Z,13.47
2018-09-09T04:50:38.316Z,13.37
2018-09-09T04:53:07.193Z,12.77
2018-09-09T04:55:36.044Z,12.33
2018-09-09T04:58:04.877Z,12.93
2018-09-09T05:00:33.934Z,13.57
2018-09-09T05:03:02.741Z,13.63
2018-09-09T05:05:31.576Z,12.70
2018-09-09T05:08:00.331Z,13.73
2018-09-09T05:10:29.245Z,13.37
2018-09-09T05:12:58.034Z,13.90
2018-09-09T05:15:26.857Z,12.17
2018-09-09T05:17:55.640Z,11.90
2018-09-09T05:20:24.532Z,12.77
2018-09-09T05:22:53.323Z,12.70
2018-09-09T05:25:22.159Z,12.50
2018-09-09T05:27:50.985Z,14.97
2018-09-09T05:30:19.808Z,13.20
2018-09-09T05:32:48.615Z,12.67
2018-09-09T05:35:17.368Z,13.53
2018-09-09T05:37:46.166Z,12.83
2018-09-09T05:40:14.946Z,13.20
2018-09-09T05:42:43.703Z,12.37
2018-09-09T05:45:12.487Z,13.83
2018-09-09T05:47:41.302Z,12.63
2018-09-09T05:50:10.167Z,12.27
2018-09-09T05:52:38.975Z,14.10
2018-09-09T05:55:08.199Z,11.90
2018-09-09T05:57:36.943Z,13.53
2018-09-09T06:00:07.026Z,14.40
2018-09-09T06:02:35.796Z,12.70
2018-09-09T06:05:04.850Z,12.27
2018-09-09T06:07:33.639Z,13.47
2018-09-09T06:10:02.415Z,13.53
2018-09-09T06:12:31.181Z,13.57
2018-09-09T06:14:59.976Z,13.20
2018-09-09T06:17:28.720Z,13.87
2018-09-09T06:19:57.531Z,13.57
2018-09-09T06:22:26.289Z,13.03
2018-09-09T06:24:55.081Z,12.87
2018-09-09T06:27:23.943Z,12.43
2018-09-09T06:29:52.679Z,14.10
2018-09-09T06:32:21.440Z,13.40
2018-09-09T06:34:50.211Z,12.27
2018-09-09T06:37:19.026Z,13.70
2018-09-09T06:39:47.811Z,13.43
2018-09-09T06:42:16.579Z,11.73
2018-09-09T06:44:45.298Z,13.00
2018-09-09T06:47:14.069Z,13.80
2018-09-09T06:49:42.876Z,11.60
2018-09-09T06:52:11.780Z,12.90
2018-09-09T06:54:40.556Z,12.00
2018-09-09T06:57:09.304Z,12.87
2018-09-09T06:59:38.049Z,12.37
2018-09-09T07:02:06.879Z,12.37
2018-09-09T07:04:35.725Z,13.40
2018-09-09T07:07:04.560Z,12.70
2018-09-09T07:09:33.319Z,12.00
2018-09-09T07:12:02.185Z,13.63
2018-09-09T07:14:31.147Z,12.57
2018-09-09T07:16:59.964Z,12.33
2018-09-09T07:19:28.960Z,11.67
2018-09-09T07:21:57.739Z,11.20
2018-09-09T07:24:26.810Z,11.80
2018-09-09T07:26:55.624Z,11.80
2018-09-09T07:29:25.123Z,11.53
2018-09-09T07:31:54.022Z,11.03
2018-09-09T07:34:23.000Z,11.83
2018-09-09T07:36:51.972Z,11.97
2018-09-09T07:39:20.805Z,12.10
2018-09-09T07:41:49.594Z,10.93
2018-09-09T07:44:18.387Z,11.70
2018-09-09T07:46:47.225Z,11.40
2018-09-09T07:49:15.964Z,12.97
2018-09-09T07:51:44.855Z,10.77
2018-09-09T07:54:13.684Z,10.50
2018-09-09T07:56:42.504Z,12.10
2018-09-09T07:59:11.398Z,11.67
2018-09-09T08:01:40.211Z,11.33
2018-09-09T08:04:08.999Z,11.33
2018-09-09T08:06:37.790Z,11.50
2018-09-09T08:09:08.376Z,10.60
2018-09-09T08:11:37.189Z,10.33
2018-09-09T08:14:07.436Z,11.00
2018-09-09T08:16:36.365Z,9.83
2018-09-09T08:19:05.753Z,9.50
2018-09-09T08:21:35.208Z,9.27
2018-09-09T08:24:04.197Z,10.43
2018-09-09T08:26:32.951Z,9.87
2018-09-09T08:29:01.781Z,9.80
2018-09-09T08:31:30.528Z,9.57
2018-09-09T08:33:59.353Z,10.07
2018-09-09T08:36:28.135Z,11.03
2018-09-09T08:38:56.956Z,10.40
2018-09-09T08:41:25.716Z,9.80
2018-09-09T08:43:54.494Z,9.23
2018-09-09T08:46:23.278Z,9.70
2018-09-09T08:48:52.048Z,9.57
2018-09-09T08:51:20.850Z,9.60
2018-09-09T08:53:50.262Z,9.23
2018-09-09T08:56:19.102Z,9.73
2018-09-09T08:58:50.778Z,9.20
2018-09-09T09:01:19.961Z,8.80
2018-09-09T09:03:48.806Z,8.43
2018-09-09T09:06:17.644Z,9.10
2018-09-09T09:08:46.599Z,7.60
2018-09-09T09:11:15.596Z,8.30
2018-09-09T09:13:44.455Z,9.07
2018-09-09T09:16:13.235Z,8.27
2018-09-09T09:18:42.080Z,7.93
2018-09-09T09:21:10.995Z,8.37
2018-09-09T09:23:39.859Z,8.53
2018-09-09T09:26:08.778Z,8.03
2018-09-09T09:28:37.533Z,7.50
2018-09-09T09:31:06.573Z,8.10
2018-09-09T09:33:35.337Z,8.27
2018-09-09T09:36:04.209Z,8.87
2018-09-09T09:38:32.988Z,7.53
2018-09-09T09:41:01.808Z,9.07
2018-09-09T09:43:30.598Z,9.00
2018-09-09T09:45:59.379Z,9.37
2018-09-09T09:48:29.163Z,8.87
2018-09-09T09:50:57.916Z,9.13
2018-09-09T09:53:26.790Z,8.83
2018-09-09T09:55:55.708Z,9.27
2018-09-09T09:58:24.466Z,9.60
2018-09-09T10:00:59.179Z,8.67
2018-09-09T10:03:28.074Z,9.40
2018-09-09T10:05:56.971Z,8.57
2018-09-09T10:08:25.824Z,8.03
2018-09-09T10:10:54.964Z,7.83
2018-09-09T10:13:23.780Z,9.10
2018-09-09T10:15:52.536Z,9.20
2018-09-09T10:18:21.293Z,8.43
2018-09-09T10:20:50.063Z,7.90
2018-09-09T10:23:18.837Z,8.37
2018-09-09T10:25:47.629Z,7.50
2018-09-09T10:28:16.458Z,8.50
2018-09-09T10:30:45.276Z,8.70
2018-09-09T10:33:14.088Z,7.90
2018-09-09T10:35:42.832Z,9.00
2018-09-09T10:38:11.696Z,9.23
2018-09-09T10:40:40.537Z,9.07
2018-09-09T10:43:09.320Z,7.67
2018-09-09T10:45:38.109Z,7.77
2018-09-09T10:48:07.000Z,8.20
2018-09-09T10:50:35.851Z,8.33
2018-09-09T10:53:04.668Z,8.10
2018-09-09T10:55:33.592Z,9.60
2018-09-09T10:58:02.364Z,7.27
2018-09-09T11:00:31.131Z,8.03
2018-09-09T11:02:59.888Z,8.37
2018-09-09T11:05:28.660Z,8.93
2018-09-09T11:07:57.424Z,9.07
2018-09-09T11:10:26.223Z,7.80
2018-09-09T11:12:55.092Z,8.63
2018-09-09T11:15:24.032Z,8.20
2018-09-09T11:17:52.859Z,9.00
2018-09-09T11:20:21.744Z,8.40
2018-09-09T11:22:50.908Z,9.33
2018-09-09T11:25:19.716Z,9.77
2018-09-09T11:27:48.515Z,8.97
2018-09-09T11:30:17.315Z,6.80
2018-09-09T11:32:46.154Z,9.27
2018-09-09T11:35:14.924Z,8.13
2018-09-09T11:37:43.695Z,7.77
2018-09-09T11:40:12.456Z,9.00
2018-09-09T11:42:41.260Z,11.40
2018-09-09T11:45:10.106Z,11.77
2018-09-09T11:47:38.924Z,13.50
2018-09-09T11:50:08.098Z,14.03
2018-09-09T11:52:36.844Z,13.23
2018-09-09T11:55:05.680Z,11.23
2018-09-09T11:57:34.433Z,12.27
2018-09-09T12:00:04.730Z,9.97
2018-09-09T12:02:33.504Z,10.33
2018-09-09T12:05:02.274Z,9.93
2018-09-09T12:07:31.132Z,9.97
2018-09-09T12:10:00.103Z,8.80
2018-09-09T12:12:29.092Z,11.97
2018-09-09T12:14:59.007Z,13.30
2018-09-09T12:17:27.819Z,11.30
2018-09-09T12:19:56.589Z,11.07
2018-09-09T12:22:25.352Z,10.53
2018-09-09T12:24:54.170Z,11.27
2018-09-09T12:27:22.942Z,11.77
2018-09-09T12:29:51.763Z,11.40
2018-09-09T12:32:20.601Z,10.90
2018-09-09T12:34:49.584Z,10.90
2018-09-09T12:37:18.381Z,11.10
2018-09-09T12:39:47.228Z,11.27
2018-09-09T12:42:16.023Z,9.53
2018-09-09T12:44:50.077Z,10.90
2018-09-09T12:47:24.754Z,10.63
2018-09-09T12:49:54.048Z,10.60
2018-09-09T12:52:22.904Z,9.40
2018-09-09T12:54:51.724Z,7.53
2018-09-09T12:57:20.534Z,7.40
2018-09-09T12:59:49.364Z,7.63
2018-09-09T13:02:18.162Z,6.33
2018-09-09T13:04:46.930Z,6.63
2018-09-09T13:07:18.703Z,6.70
2018-09-09T13:09:47.631Z,6.53
2018-09-09T13:12:16.411Z,7.70
2018-09-09T13:14:45.244Z,8.27
2018-09-09T13:17:14.068Z,7.63
2018-09-09T13:19:42.884Z,6.57
2018-09-09T13:22:11.669Z,5.67
2018-09-09T13:24:40.447Z,6.33
2018-09-09T13:27:09.278Z,7.03
2018-09-09T13:29:38.099Z,7.33
2018-09-09T13:32:06.915Z,12.10
2018-09-09T13:34:35.733Z,7.90
2018-09-09T13:37:04.529Z,7.20
2018-09-09T13:39:33.353Z,7.80
2018-09-09T13:42:02.471Z,6.83
2018-09-09T13:44:31.677Z,7.77
2018-09-09T13:47:00.547Z,7.37
2018-09-09T13:49:29.408Z,6.97
2018-09-09T13:51:58.957Z,7.00
2018-09-09T13:54:27.785Z,7.30
2018-09-09T13:56:56.588Z,6.67
2018-09-09T13:59:25.352Z,7.00
2018-09-09T14:01:54.223Z,7.07
2018-09-09T14:04:22.962Z,7.03
2018-09-09T14:06:51.891Z,6.33
2018-09-09T14:09:20.742Z,5.90
2018-09-09T14:11:49.532Z,6.97
2018-09-09T14:14:18.316Z,8.53
2018-09-09T14:16:47.099Z,7.67
2018-09-09T14:19:15.940Z,8.27
2018-09-09T14:21:44.755Z,7.23
2018-09-09T14:24:14.371Z,8.17
2018-09-09T14:26:43.357Z,7.87
2018-09-09T14:29:12.246Z,7.10
2018-09-09T14:31:41.171Z,10.23
2018-09-09T14:34:10.032Z,6.23
2018-09-09T14:36:38.966Z,6.13
2018-09-09T14:39:09.339Z,5.77
2018-09-09T14:41:38.111Z,5.43
2018-09-09T14:44:07.167Z,4.97
2018-09-09T14:46:35.957Z,5.37
2018-09-09T14:49:04.759Z,5.17
2018-09-09T14:51:33.599Z,4.77
2018-09-09T14:54:02.375Z,3.90
2018-09-09T14:56:31.167Z,5.00
2018-09-09T14:59:00.130Z,3.87
2018-09-09T15:01:29.326Z,4.03
2018-09-09T15:03:58.116Z,4.23
2018-09-09T15:06:27.269Z,4.73
2018-09-09T15:08:56.281Z,3.73
2018-09-09T15:11:25.068Z,4.03
2018-09-09T15:13:53.931Z,4.57
2018-09-09T15:16:22.721Z,4.53
2018-09-09T15:18:53.218Z,4.30
2018-09-09T15:21:22.033Z,4.10
2018-09-09T15:23:50.836Z,4.33
2018-09-09T15:26:19.658Z,4.50
2018-09-09T15:28:48.520Z,4.40
2018-09-09T15:31:17.419Z,4.60
2018-09-09T15:33:46.183Z,4.97
2018-09-09T15:36:15.065Z,4.97
2018-09-09T15:38:43.882Z,4.80
2018-09-09T15:41:13.457Z,4.67
2018-09-09T15:43:42.294Z,4.80
2018-09-09T15:46:11.091Z,4.73
2018-09-09T15:48:39.857Z,4.63
2018-09-09T15:51:08.619Z,4.77
2018-09-09T15:53:37.404Z,4.73
2018-09-09T15:56:06.185Z,4.50
2018-09-09T15:58:34.991Z,4.93
2018-09-09T16:01:03.864Z,5.13
2018-09-09T16:03:32.704Z,5.37
2018-09-09T16:06:01.477Z,5.87
2018-09-09T16:08:30.270Z,5.27
2018-09-09T16:10:59.119Z,5.73
2018-09-09T16:13:27.903Z,6.40
2018-09-09T16:15:56.678Z,5.17
2018-09-09T16:18:25.489Z,5.70
2018-09-09T16:20:54.262Z,5.57
2018-09-09T16:23:23.073Z,5.53
2018-09-09T16:25:51.958Z,5.90
2018-09-09T16:28:20.722Z,5.43
2018-09-09T16:30:49.497Z,5.73
2018-09-09T16:33:18.450Z,6.07
2018-09-09T16:35:47.285Z,5.77
2018-09-09T16:38:16.054Z,5.47
2018-09-09T16:40:44.827Z,6.43
2018-09-09T16:43:14.391Z,6.50
2018-09-09T16:45:43.160Z,5.47
2018-09-09T16:48:11.986Z,5.63
2018-09-09T16:50:40.776Z,5.37
2018-09-09T16:53:09.541Z,6.13
2018-09-09T16:55:38.303Z,6.57
2018-09-09T16:58:07.143Z,4.97
2018-09-09T17:00:35.981Z,5.63
2018-09-09T17:03:04.807Z,6.40
2018-09-09T17:05:33.694Z,5.07
2018-09-09T17:08:02.512Z,5.57
2018-09-09T17:10:31.315Z,5.67
2018-09-09T17:13:00.174Z,5.50
2018-09-09T17:15:34.872Z,5.67
2018-09-09T17:18:03.943Z,5.53
2018-09-09T17:20:32.726Z,4.93
2018-09-09T17:23:02.397Z,5.17
2018-09-09T17:25:31.247Z,5.27
2018-09-09T17:27:59.964Z,5.67
2018-09-09T17:30:29.272Z,5.03
2018-09-09T17:32:58.134Z,5.30
2018-09-09T17:35:26.948Z,6.17
2018-09-09T17:37:55.739Z,4.83
2018-09-09T17:40:24.878Z,4.90
2018-09-09T17:42:53.628Z,5.07
2018-09-09T17:45:22.483Z,4.57
2018-09-09T17:47:51.303Z,4.93
2018-09-09T17:50:20.050Z,5.47
2018-09-09T17:52:48.892Z,4.60
2018-09-09T17:55:17.943Z,4.80
2018-09-09T17:57:46.775Z,4.63
2018-09-09T18:00:15.627Z,4.83
2018-09-09T18:02:44.413Z,4.27
2018-09-09T18:05:13.452Z,5.20
2018-09-09T18:07:42.230Z,4.77
2018-09-09T18:10:11.025Z,4.73
2018-09-09T18:12:39.855Z,4.73
2018-09-09T18:15:08.774Z,4.53
2018-09-09T18:17:37.576Z,4.43
2018-09-09T18:20:06.518Z,4.03
2018-09-09T18:22:35.478Z,3.87
2018-09-09T18:25:04.350Z,4.20
2018-09-09T18:27:33.150Z,4.27
2018-09-09T18:30:01.920Z,4.40
2018-09-09T18:32:30.650Z,3.80
2018-09-09T18:34:59.595Z,4.97
2018-09-09T18:37:28.534Z,4.97
2018-09-09T18:39:57.343Z,3.97
2018-09-09T18:42:26.149Z,5.03
2018-09-09T18:44:54.978Z,5.00
2018-09-09T18:47:23.867Z,4.57
2018-09-09T18:49:52.818Z,4.83
2018-09-09T18:52:21.634Z,4.80
2018-09-09T18:54:50.475Z,4.33
2018-09-09T18:57:19.286Z,4.80
2018-09-09T18:59:48.092Z,5.10
2018-09-09T19:02:16.928Z,4.93
2018-09-09T19:04:45.816Z,4.70
2018-09-09T19:07:14.678Z,4.77
2018-09-09T19:09:43.487Z,4.80
2018-09-09T19:12:12.385Z,4.20
2018-09-09T19:14:41.595Z,3.80
2018-09-09T19:17:10.414Z,4.40
2018-09-09T19:19:39.264Z,4.50
2018-09-09T19:22:08.465Z,4.97
2018-09-09T19:24:37.380Z,4.17
2018-09-09T19:27:06.492Z,4.60
2018-09-09T19:29:35.395Z,4.83
2018-09-09T19:32:04.191Z,4.43
2018-09-09T19:34:33.004Z,4.47
2018-09-09T19:37:01.824Z,4.57
2018-09-09T19:39:30.683Z,4.47
2018-09-09T19:41:59.492Z,4.80
2018-09-09T19:44:28.275Z,5.13
2018-09-09T19:46:57.054Z,5.40
2018-09-09T19:49:25.887Z,5.20
2018-09-09T19:51:54.698Z,5.80
2018-09-09T19:54:23.539Z,4.80
2018-09-09T19:56:52.338Z,4.57
2018-09-09T19:59:21.094Z,4.37
2018-09-09T20:01:49.939Z,4.20
2018-09-09T20:04:18.798Z,4.03
2018-09-09T20:06:47.585Z,4.43
2018-09-09T20:09:16.366Z,4.93
2018-09-09T20:11:45.140Z,4.63
2018-09-09T20:14:13.954Z,5.13
2018-09-09T20:16:42.752Z,4.60
2018-09-09T20:19:11.620Z,4.63
2018-09-09T20:21:40.494Z,4.37
2018-09-09T20:24:09.316Z,4.77
2018-09-09T20:26:38.146Z,4.60
2018-09-09T20:29:07.072Z,4.77
2018-09-09T20:31:36.064Z,4.27
2018-09-09T20:34:05.003Z,4.10
2018-09-09T20:36:33.904Z,4.50
2018-09-09T20:39:03.936Z,4.20
2018-09-09T20:41:32.745Z,4.80
2018-09-09T20:44:01.544Z,5.10
2018-09-09T20:46:31.420Z,4.70
2018-09-09T20:49:00.265Z,4.90
2018-09-09T20:51:29.061Z,5.60
2018-09-09T20:53:57.862Z,5.03
2018-09-09T20:56:26.686Z,5.13
2018-09-09T20:58:55.599Z,5.33
2018-09-09T21:01:24.393Z,4.90
2018-09-09T21:03:53.192Z,4.63
2018-09-09T21:06:23.695Z,4.50
2018-09-09T21:08:52.521Z,5.00
2018-09-09T21:11:21.622Z,4.23
2018-09-09T21:13:50.421Z,5.00
2018-09-09T21:16:19.322Z,4.60
2018-09-09T21:18:48.136Z,4.90
2018-09-09T21:21:16.943Z,4.87
2018-09-09T21:23:45.780Z,4.97
2018-09-09T21:26:14.664Z,4.93
2018-09-09T21:28:43.607Z,5.43
2018-09-09T21:31:12.433Z,5.50
2018-09-09T21:33:41.353Z,5.30
2018-09-09T21:36:10.158Z,4.43
2018-09-09T21:38:38.943Z,5.20
2018-09-09T21:41:07.754Z,5.60
2018-09-09T21:43:36.585Z,5.00
2018-09-09T21:46:05.405Z,5.37
2018-09-09T21:48:34.182Z,4.90
2018-09-09T21:51:02.991Z,4.57
2018-09-09T21:53:31.747Z,4.90
2018-09-09T21:56:00.522Z,5.47
2018-09-09T21:58:29.290Z,5.43
2018-09-09T22:01:03.169Z,5.47
2018-09-09T22:03:31.984Z,4.83
2018-09-09T22:06:00.761Z,5.63
2018-09-09T22:08:29.522Z,5.53
2018-09-09T22:10:58.318Z,5.80
2018-09-09T22:13:27.131Z,5.83
2018-09-09T22:15:55.925Z,5.70
2018-09-09T22:18:24.706Z,4.97
2018-09-09T22:20:53.558Z,5.13
2018-09-09T22:23:22.380Z,5.20
2018-09-09T22:25:51.261Z,5.30
2018-09-09T22:28:20.036Z,5.83
2018-09-09T22:30:48.871Z,5.23
2018-09-09T22:33:17.655Z,5.10
2018-09-09T22:35:46.447Z,5.20
2018-09-09T22:38:15.272Z,5.50
2018-09-09T22:40:44.015Z,5.63
2018-09-09T22:43:13.003Z,4.77
2018-09-09T22:45:42.265Z,5.87
2018-09-09T22:48:11.762Z,6.10
2018-09-09T22:50:40.613Z,6.03
2018-09-09T22:53:09.677Z,5.40
2018-09-09T22:55:38.487Z,4.87
2018-09-09T22:58:07.244Z,6.10
2018-09-09T23:00:36.075Z,5.90
2018-09-09T23:03:04.890Z,6.20
2018-09-09T23:05:33.775Z,5.20
2018-09-09T23:08:02.732Z,5.40
2018-09-09T23:10:31.521Z,5.23
2018-09-09T23:13:00.406Z,6.00
2018-09-09T23:15:29.631Z,5.43
2018-09-09T23:17:58.460Z,6.10
2018-09-09T23:20:27.319Z,5.63
2018-09-09T23:22:56.358Z,6.23
2018-09-09T23:25:25.122Z,5.90
2018-09-09T23:27:54.123Z,5.80
2018-09-09T23:30:22.904Z,6.50
2018-09-09T23:32:51.699Z,5.50
2018-09-09T23:35:20.537Z,6.50
2018-09-09T23:37:49.504Z,5.40
2018-09-09T23:40:18.248Z,5.93
2018-09-09T23:42:47.023Z,5.87
2018-09-09T23:45:15.799Z,6.10
2018-09-09T23:47:44.575Z,6.30
2018-09-09T23:50:13.437Z,6.27
2018-09-09T23:52:42.240Z,5.93
2018-09-09T23:55:11.034Z,6.60
2018-09-09T23:57:39.825Z,7.37
